• Join FlightAware (Why Join?)
  • Login
  • US Flag 
11:07AM EDT


 

Airport Tracker/Info


-or-


 

Live Flight TrackerFlight Track Log ✈ SWA1905 ✈ 29-Feb-2012 ✈ KMSY - KHOU

Flight Track Log - Related Links

Times and Time Zones

All times are in EST time to prevent confusion due to time zone crossing. See the SWA1905 flight status page for this flight to view local times or setup timezone preferences in your user account.

Time Position Orientation Groundspeed Altitude Reporting Facility
EST Latitude Longitude Course Direction KTS MPH feet Rate Location/Type
07:13AM 29.9928 -90.2819 262° West 156 180 800  Level Houston Center
07:14AM 29.9850 -90.3494 257° West 171 197 4,700 3,600 Climbing Houston Center
07:15AM 29.9692 -90.4261 251° West 213 245 8,700 3,540 Climbing Houston Center
07:16AM 29.9428 -90.5153 253° West 258 297 11,800 3,360 Climbing Houston Center
07:17AM 29.9164 -90.6161 252° West 305 351 15,500 3,720 Climbing Houston Center
07:18AM 29.8858 -90.7267 254° West 336 387 19,300 3,600 Climbing Houston Center
07:19AM 29.8575 -90.8394 249° West 358 412 22,700 3,180 Climbing Houston Center
07:20AM 29.8206 -90.9522 250° West 379 436 25,700 2,700 Climbing Houston Center
07:21AM 29.7833 -91.0722 250° West 389 448 28,200 2,400 Climbing Houston Center
07:22AM 29.7464 -91.1897 249° West 394 453 30,600 2,700 Climbing Houston Center
07:23AM 29.7069 -91.3072 263° West 394 453 33,700 2,700 Climbing Houston Center
07:24AM 29.6947 -91.4219 260° West 380 437 36,100 2,280 Climbing Houston Center
07:25AM 29.6781 -91.5319 262° West 373 429 38,300 1,800 Climbing Houston Center
07:26AM 29.6636 -91.6444 264° West 368 423 39,700 840 Climbing Houston Center
07:27AM 29.6531 -91.7567 261° West 368 423 40,000 120 Climbing Houston Center
07:28AM 29.6364 -91.8714 261° West 368 423 40,000  Level Houston Center
07:29AM 29.6214 -91.9836 261° West 368 423 40,000  Level Houston Center
07:30AM 29.6067 -92.0958 260° West 368 423 40,000  Level Houston Center
07:31AM 29.5894 -92.2106 261° West 368 423 40,000  Level Houston Center
07:32AM 29.5742 -92.3228 263° West 368 423 40,000  Level Houston Center
07:33AM 29.5611 -92.4372 260° West 368 423 40,000  Level Houston Center
07:34AM 29.5439 -92.5494 261° West 368 423 40,000  Level Houston Center
07:35AM 29.5283 -92.6614 261° West 368 423 40,000  Level Houston Center
07:36AM 29.5128 -92.7783 261° West 368 423 40,000  Level Houston Center
07:37AM 29.4972 -92.8878 261° West 368 423 40,000  Level Houston Center
07:38AM 29.4817 -93.0022 261° West 368 423 40,000 -660 Level Houston Center
07:39AM 29.4658 -93.1167 262° West 368 423 38,700 -1,980 Descending Houston Center
07:40AM 29.4522 -93.2236 260° West 357 411 36,100 -2,400 Descending Houston Center
07:41AM 29.4361 -93.3308 261° West 350 403 33,900 -2,160 Descending Houston Center
07:42AM 29.4222 -93.4356 260° West 350 403 31,800 -2,100 Descending Houston Center
07:43AM 29.4064 -93.5425 260° West 350 403 29,800 -2,100 Descending Houston Center
07:44AM 29.3900 -93.6544 260° West 350 403 27,600 -2,160 Descending Houston Center
07:45AM 29.3739 -93.7614 259° West 350 403 25,500 -1,860 Descending Houston Center
07:46AM 29.3600 -93.8397 262° West 345 397 23,900 -1,800 Descending Houston Center
07:47AM 29.3458 -93.9539 260° West 334 384 21,900 -1,980 Descending Houston Center
07:48AM 29.3314 -94.0511 261° West 328 377 20,000 -2,100 Descending Houston Center
07:49AM 29.3172 -94.1508 261° West 328 377 17,700 -2,460 Descending Houston Center
07:50AM 29.3075 -94.2244 259° West 318 366 16,100 -2,340 Descending Houston Center
07:51AM 29.2908 -94.3242 260° West 318 366 14,000 -1,980 Descending Houston Center
07:52AM 29.2764 -94.4192 277° West 312 359 12,200 -960 Descending Houston Center
07:53AM 29.2886 -94.5361 301° West 302 348 11,800 -960 Descending Houston Center
07:54AM 29.3228 -94.6014 298° West 308 354 10,300 -1,080 Descending Houston Center
07:55AM 29.3628 -94.6883 301° West 300 345 10,000 -480 Descending Houston Center
07:56AM 29.4047 -94.7681 298° West 293 337 9,400 -1,080 Descending Houston Center
07:57AM 29.4386 -94.8406 300° West 282 325 8,000 -1,560 Descending Houston Center
07:58AM 29.4783 -94.9206 300° West 273 314 6,300 -960 Descending Houston Center
07:59AM 29.5183 -95.0006 300° West 270 311 6,000 -180 Descending Houston Center
08:00AM 29.5500 -95.0639 298° West 270 311 6,000  Level Houston Center
08:01AM 29.5856 -95.1414 287° West 269 310 6,000  Level Houston Center
08:02AM 29.6047 -95.2136 276° West 224 258 6,000  Level Houston Center
08:03AM 29.6111 -95.2831 278° West 215 247 6,000  Level Houston Center
08:04AM 29.6197 -95.3503 294° West 215 247 6,000 -660 Level Houston Center
08:05AM 29.6453 -95.4158 312° West 237 273 4,700 -1,320 Descending Houston Center
08:06AM 29.6936 -95.4772 350° North 219 252 3,300 -1,260 Descending Houston Center
08:07AM 29.7372 -95.4861 58° Northeast 211 243 2,200 -720 Descending Houston Center
08:08AM 29.7636 -95.4367 124° Southeast 193 222 2,000 -120 Descending Houston Center
08:09AM 29.7378 -95.3928 124° Southeast 171 197 2,000  Level Houston Center